Time;durP1;ratioP1;P1;durP2;ratioP2;P2;SDS_P1;SDS_P2;PMS_P1;PMS_P2;Temp;Humidity;BMP_temperature;BMP_pressure;BME280_temperature;BME280_humidity;BME280_pressure;Samples;Min_cycle;Max_cycle;Signal;HPM_P1;HPM_P2
2023/09/25 00:00:45;;;;;;;;;;;;;;;20.95;54.86;102336.50;4901239;29;6254;-60
2023/09/25 00:03:11;;;;;;;;;;;;;;;20.95;54.63;102325.00;4900151;29;2363;-60
2023/09/25 00:05:39;;;;;;;;;;;;;;;20.95;54.75;102330.75;4904102;29;1694;-60
2023/09/25 00:08:05;;;;;;;;;;;;;;;20.95;54.53;102325.00;4886009;29;2052;-60
2023/09/25 00:10:32;;;;;;;;;;;;;;;20.94;54.71;102324.25;4902876;29;1691;-60
2023/09/25 00:12:58;;;;;;;;;;;;;;;20.93;54.52;102320.59;4898641;29;2299;-60
2023/09/25 00:15:25;;;;;;;;;;;;;;;20.94;54.48;102324.25;4902588;29;1916;-60
2023/09/25 00:17:52;;;;;;;;;;;;;;;20.93;54.71;102326.34;4900829;29;2160;-60
2023/09/25 00:20:24;;;;;;;;;;;;;;;20.92;54.51;102321.97;4903779;29;1623;-60
2023/09/25 00:22:50;;;;;;;;;;;;;;;20.93;54.53;102323.47;4901910;29;2000;-60
2023/09/25 00:25:19;;;;;;;;;;;;;;;20.93;54.49;102323.47;4902445;29;1841;-60
2023/09/25 00:27:45;;;;;;;;;;;;;;;20.93;54.83;102323.47;4901349;29;1949;-60
2023/09/25 00:30:12;;;;;;;;;;;;;;;20.90;54.77;102324.72;4901325;29;6526;-60
2023/09/25 00:32:39;;;;;;;;;;;;;;;20.92;54.54;102316.22;4899530;29;2283;-60
2023/09/25 00:35:10;;;;;;;;;;;;;;;20.92;54.72;102319.09;4885145;29;2072;-60
2023/09/25 00:37:37;;;;;;;;;;;;;;;20.92;54.55;102321.97;4906582;29;1941;-60
2023/09/25 00:40:13;;;;;;;;;;;;;;;20.92;54.46;102321.97;4906321;29;2230;-60
2023/09/25 00:42:40;;;;;;;;;;;;;;;20.92;54.59;102321.97;4904453;29;1947;-60
2023/09/25 00:45:07;;;;;;;;;;;;;;;20.92;54.72;102327.00;4906983;29;1839;-60
2023/09/25 00:47:34;;;;;;;;;;;;;;;20.91;54.49;102320.47;4905246;29;2242;-60
2023/09/25 00:50:01;;;;;;;;;;;;;;;20.92;54.72;102324.09;4906547;29;1676;-60
2023/09/25 00:52:27;;;;;;;;;;;;;;;20.91;54.76;102326.25;4906021;29;1882;-60
2023/09/25 00:54:53;;;;;;;;;;;;;;;20.91;54.52;102313.94;4904983;29;2302;-60
2023/09/25 00:57:20;;;;;;;;;;;;;;;20.89;54.77;102311.69;4887844;29;2217;-60
2023/09/25 00:59:46;;;;;;;;;;;;;;;20.90;54.56;102310.31;4885227;29;1696;-60
2023/09/25 01:02:13;;;;;;;;;;;;;;;20.91;54.70;102308.19;4886929;29;6046;-60
2023/09/25 01:04:39;;;;;;;;;;;;;;;20.91;54.74;102303.19;4904606;29;2266;-60
2023/09/25 01:07:06;;;;;;;;;;;;;;;20.90;54.51;102307.44;4888185;29;2319;-60
2023/09/25 01:09:32;;;;;;;;;;;;;;;20.91;54.66;102305.31;4906398;29;2588;-60
2023/09/25 01:11:59;;;;;;;;;;;;;;;20.90;54.65;102301.69;4905428;29;1862;-60
2023/09/25 01:14:27;;;;;;;;;;;;;;;20.91;54.73;102302.44;4904032;29;2273;-60
2023/09/25 01:16:53;;;;;;;;;;;;;;;20.90;54.51;102301.69;4890557;29;1978;-60
2023/09/25 01:19:21;;;;;;;;;;;;;;;20.90;54.52;102298.06;4901663;29;2405;-60
2023/09/25 01:21:47;;;;;;;;;;;;;;;20.90;54.62;102295.91;4905521;29;1784;-60
2023/09/25 01:24:13;;;;;;;;;;;;;;;20.90;54.32;102295.91;4904376;29;2238;-60
2023/09/25 01:26:40;;;;;;;;;;;;;;;20.89;54.33;102288.66;4904630;29;1716;-60
2023/09/25 01:29:06;;;;;;;;;;;;;;;20.90;54.88;102298.81;4901618;29;1635;-60
2023/09/25 01:31:33;;;;;;;;;;;;;;;20.90;54.43;102298.06;4900894;29;6114;-60
2023/09/25 01:33:59;;;;;;;;;;;;;;;20.89;54.57;102294.44;4881304;29;1907;-60
2023/09/25 01:36:26;;;;;;;;;;;;;;;20.90;54.51;102290.16;4904997;29;2334;-60
2023/09/25 01:38:52;;;;;;;;;;;;;;;20.89;54.71;102288.66;4905168;29;1621;-60
2023/09/25 01:41:19;;;;;;;;;;;;;;;20.89;54.69;102285.00;4904047;29;2329;-60
2023/09/25 01:43:45;;;;;;;;;;;;;;;20.89;54.47;102288.66;4903605;29;1831;-60
2023/09/25 01:46:11;;;;;;;;;;;;;;;20.89;54.52;102282.91;4903553;29;1711;-60
2023/09/25 01:48:38;;;;;;;;;;;;;;;20.89;54.53;102285.78;4903270;29;2042;-60
2023/09/25 01:51:08;;;;;;;;;;;;;;;20.89;54.71;102288.66;4903474;29;2056;-60
2023/09/25 01:53:35;;;;;;;;;;;;;;;20.90;54.73;102284.41;4904438;29;1751;-61
2023/09/25 01:56:08;;;;;;;;;;;;;;;20.90;54.34;102267.13;4883078;29;1919;-60
2023/09/25 01:58:35;;;;;;;;;;;;;;;20.90;54.55;102281.53;4881501;29;2308;-60
2023/09/25 02:01:02;;;;;;;;;;;;;;;20.91;54.46;102285.16;4888100;29;6094;-60
2023/09/25 02:03:28;;;;;;;;;;;;;;;20.90;54.40;102284.41;4883123;29;2300;-60
2023/09/25 02:05:55;;;;;;;;;;;;;;;20.89;54.38;102287.88;4888921;29;1884;-60
2023/09/25 02:08:23;;;;;;;;;;;;;;;20.90;54.56;102290.16;4882220;29;2383;-60
2023/09/25 02:10:49;;;;;;;;;;;;;;;20.89;54.78;102288.66;4880417;29;1676;-60
2023/09/25 02:13:16;;;;;;;;;;;;;;;20.89;54.65;102294.44;4905041;29;1746;-60
2023/09/25 02:15:42;;;;;;;;;;;;;;;20.89;54.71;102288.66;4905364;29;2272;-60
2023/09/25 02:18:09;;;;;;;;;;;;;;;20.89;54.59;102288.66;4878645;29;2446;-60
2023/09/25 02:20:35;;;;;;;;;;;;;;;20.90;54.62;102287.28;4903181;29;2346;-60
2023/09/25 02:23:02;;;;;;;;;;;;;;;20.90;54.61;102301.69;4880727;29;2361;-60
2023/09/25 02:25:28;;;;;;;;;;;;;;;20.89;54.42;102288.66;4904603;29;2345;-60
2023/09/25 02:27:55;;;;;;;;;;;;;;;20.89;54.86;102288.66;4902658;29;1752;-61
2023/09/25 02:30:21;;;;;;;;;;;;;;;20.88;54.52;102287.13;4881659;29;6195;-60
2023/09/25 02:32:48;;;;;;;;;;;;;;;20.88;54.73;102287.13;4903201;29;2368;-60
2023/09/25 02:35:14;;;;;;;;;;;;;;;20.88;54.70;102281.38;4901830;29;2299;-60
2023/09/25 02:37:41;;;;;;;;;;;;;;;20.87;54.66;102284.91;4903269;29;1973;-60
2023/09/25 02:40:13;;;;;;;;;;;;;;;20.88;54.82;102287.13;4882542;29;2542;-60
2023/09/25 02:42:42;;;;;;;;;;;;;;;20.88;54.49;102287.13;4898809;29;1774;-60
2023/09/25 02:45:08;;;;;;;;;;;;;;;20.88;54.64;102275.63;4902857;29;1608;-60
2023/09/25 02:47:35;;;;;;;;;;;;;;;20.87;54.66;102285.66;4901244;29;1866;-60
2023/09/25 02:50:01;;;;;;;;;;;;;;;20.87;54.89;102274.13;4903281;29;1669;-60
2023/09/25 02:52:28;;;;;;;;;;;;;;;20.87;54.57;102279.88;4903870;29;1858;-60
2023/09/25 02:54:54;;;;;;;;;;;;;;;20.87;54.62;102276.25;4904439;29;2242;-60
2023/09/25 02:57:21;;;;;;;;;;;;;;;20.87;54.67;102271.25;4903404;29;1972;-60
2023/09/25 02:59:48;;;;;;;;;;;;;;;20.86;54.81;102272.59;4901747;29;1778;-61
2023/09/25 03:02:15;;;;;;;;;;;;;;;20.86;54.55;102272.59;4885941;29;6188;-60
2023/09/25 03:04:41;;;;;;;;;;;;;;;20.87;54.61;102279.16;4899970;29;2128;-60
2023/09/25 03:07:08;;;;;;;;;;;;;;;20.87;54.77;102282.03;4902729;29;1865;-60
2023/09/25 03:09:35;;;;;;;;;;;;;;;20.87;54.79;102282.75;4887398;29;1649;-60
2023/09/25 03:12:02;;;;;;;;;;;;;;;20.87;54.83;102290.66;4903820;29;1877;-61
2023/09/25 03:14:28;;;;;;;;;;;;;;;20.87;54.60;102287.78;4885884;29;2690;-60
2023/09/25 03:16:55;;;;;;;;;;;;;;;20.86;54.67;102295.66;4902050;29;1949;-60
2023/09/25 03:19:21;;;;;;;;;;;;;;;20.85;54.62;102294.16;4881895;29;1808;-60
2023/09/25 03:21:48;;;;;;;;;;;;;;;20.85;54.92;102291.28;4903805;29;1795;-60
2023/09/25 03:24:14;;;;;;;;;;;;;;;20.85;54.79;102288.38;4896892;29;2347;-60
2023/09/25 03:26:41;;;;;;;;;;;;;;;20.85;54.84;102299.16;4895784;29;2548;-61
2023/09/25 03:29:09;;;;;;;;;;;;;;;20.84;54.67;102289.75;4878032;29;2325;-61
2023/09/25 03:31:35;;;;;;;;;;;;;;;20.84;54.61;102292.63;4900977;29;6626;-61
2023/09/25 03:34:02;;;;;;;;;;;;;;;20.84;54.56;102286.13;4881473;29;2355;-60
2023/09/25 03:36:28;;;;;;;;;;;;;;;20.84;54.69;102289.75;4878555;29;2491;-61
2023/09/25 03:38:55;;;;;;;;;;;;;;;20.85;54.68;102293.41;4902742;29;1802;-60
2023/09/25 03:41:21;;;;;;;;;;;;;;;20.84;54.55;102294.75;4902192;29;1799;-60
2023/09/25 03:43:49;;;;;;;;;;;;;;;20.84;54.54;102297.63;4878472;29;2441;-60
2023/09/25 03:46:15;;;;;;;;;;;;;;;20.84;54.65;102286.13;4886151;29;2039;-60
2023/09/25 03:48:45;;;;;;;;;;;;;;;20.84;54.86;102286.88;4882809;29;2184;-60
2023/09/25 03:51:12;;;;;;;;;;;;;;;20.84;54.63;102292.63;4884059;29;2346;-60
2023/09/25 03:53:39;;;;;;;;;;;;;;;20.84;54.69;102286.13;4900245;29;2302;-60
2023/09/25 03:56:05;;;;;;;;;;;;;;;20.83;54.90;102288.25;4903156;29;1915;-60
2023/09/25 03:58:33;;;;;;;;;;;;;;;20.83;54.58;102285.38;4903517;29;1909;-60
2023/09/25 04:00:59;;;;;;;;;;;;;;;20.83;54.68;102288.25;4898832;29;6529;-60
2023/09/25 04:03:26;;;;;;;;;;;;;;;20.83;54.87;102281.75;4901847;29;2463;-60
2023/09/25 04:05:57;;;;;;;;;;;;;;;20.83;54.74;102278.88;4902293;29;1862;-60
2023/09/25 04:08:23;;;;;;;;;;;;;;;20.83;54.91;102282.50;4902115;29;1835;-60
2023/09/25 04:10:50;;;;;;;;;;;;;;;20.82;54.70;102278.13;4901931;29;1758;-60
2023/09/25 04:13:18;;;;;;;;;;;;;;;20.82;54.80;102278.13;4898275;29;2314;-60
2023/09/25 04:15:44;;;;;;;;;;;;;;;20.83;54.90;102290.38;4902333;29;2120;-60
2023/09/25 04:18:12;;;;;;;;;;;;;;;20.83;54.76;102284.63;4901297;29;2199;-60
2023/09/25 04:20:39;;;;;;;;;;;;;;;20.83;54.74;102285.38;4898996;29;2157;-61
2023/09/25 04:23:05;;;;;;;;;;;;;;;20.79;55.11;102285.09;4902560;29;1651;-66
2023/09/25 04:25:32;;;;;;;;;;;;;;;20.86;55.14;102284.13;4900055;29;2541;-66
2023/09/25 04:27:59;;;;;;;;;;;;;;;20.87;55.02;102285.66;4899463;29;2620;-70
2023/09/25 04:30:25;;;;;;;;;;;;;;;20.91;54.89;102291.69;4898132;29;6179;-65
2023/09/25 04:32:55;;;;;;;;;;;;;;;20.87;54.85;102294.28;4897375;29;2470;-65
2023/09/25 04:35:22;;;;;;;;;;;;;;;20.75;54.52;102290.56;4896860;29;2445;-65
2023/09/25 04:37:48;;;;;;;;;;;;;;;20.67;54.53;102301.56;4899737;29;2388;-65
2023/09/25 04:40:30;;;;;;;;;;;;;;;20.71;54.73;102299.69;4900169;29;2337;-65
2023/09/25 04:43:00;;;;;;;;;;;;;;;20.76;54.66;102302.84;4901006;29;2109;-65
2023/09/25 04:45:29;;;;;;;;;;;;;;;20.78;54.41;102295.13;4901351;29;1830;-65
2023/09/25 04:47:57;;;;;;;;;;;;;;;20.78;54.36;102303.75;4900146;29;2012;-65
2023/09/25 04:50:23;;;;;;;;;;;;;;;20.78;54.44;102300.88;4901437;29;1902;-65
2023/09/25 04:52:50;;;;;;;;;;;;;;;20.79;54.53;102298.75;4900645;29;2101;-65
2023/09/25 04:55:16;;;;;;;;;;;;;;;20.79;54.75;102304.50;4901173;29;2133;-65
2023/09/25 04:57:43;;;;;;;;;;;;;;;20.79;54.54;102295.84;4900853;29;2168;-65
2023/09/25 05:00:28;;;;;;;;;;;;;;;20.79;54.53;102301.63;4897341;29;6248;-65
2023/09/25 05:02:55;;;;;;;;;;;;;;;20.79;54.69;102301.63;4902805;29;2139;-65
2023/09/25 05:05:22;;;;;;;;;;;;;;;20.78;54.67;102300.13;4901733;29;2162;-65
2023/09/25 05:07:49;;;;;;;;;;;;;;;20.78;54.68;102294.38;4901462;29;1914;-65
2023/09/25 05:10:16;;;;;;;;;;;;;;;20.78;54.73;102295.13;4901591;29;1995;-65
2023/09/25 05:12:43;;;;;;;;;;;;;;;20.77;54.76;102287.84;4899955;29;1897;-65
2023/09/25 05:15:13;;;;;;;;;;;;;;;20.77;54.82;102290.72;4900698;29;1970;-65
2023/09/25 05:17:39;;;;;;;;;;;;;;;20.78;54.95;102288.59;4902262;29;2410;-65
2023/09/25 05:20:10;;;;;;;;;;;;;;;20.77;54.93;102287.84;4900268;29;2247;-65
2023/09/25 05:22:37;;;;;;;;;;;;;;;20.77;54.64;102287.09;4901549;29;2216;-65
2023/09/25 05:25:05;;;;;;;;;;;;;;;20.77;55.08;102284.19;4902926;29;2262;-65
2023/09/25 05:27:32;;;;;;;;;;;;;;;20.77;54.98;102276.31;4904557;29;2225;-65
2023/09/25 05:29:58;;;;;;;;;;;;;;;20.76;54.95;102280.56;4903075;29;2059;-65
2023/09/25 05:32:25;;;;;;;;;;;;;;;20.76;54.96;102280.56;4902467;29;6444;-65
2023/09/25 05:34:51;;;;;;;;;;;;;;;20.77;54.78;102292.84;4904670;29;1913;-65
2023/09/25 05:37:17;;;;;;;;;;;;;;;20.76;54.89;102297.09;4904169;29;2102;-65
2023/09/25 05:39:44;;;;;;;;;;;;;;;20.75;54.71;102296.31;4904352;29;1933;-65
2023/09/25 05:42:10;;;;;;;;;;;;;;;20.76;54.97;102299.97;4905610;29;1749;-75
2023/09/25 05:44:37;;;;;;;;;;;;;;;20.76;54.79;102297.84;4906107;29;2002;-68
2023/09/25 05:47:03;;;;;;;;;;;;;;;20.76;54.82;102305.75;4902568;29;2218;-68
2023/09/25 05:49:30;;;;;;;;;;;;;;;20.75;54.85;102299.22;4901857;29;2168;-68
2023/09/25 05:51:57;;;;;;;;;;;;;;;20.75;54.82;102299.22;4905701;29;1678;-68
2023/09/25 05:54:23;;;;;;;;;;;;;;;20.74;55.02;102294.84;4904918;29;1925;-68
2023/09/25 05:56:50;;;;;;;;;;;;;;;20.74;54.88;102294.84;4903250;29;2226;-68
2023/09/25 05:59:16;;;;;;;;;;;;;;;20.73;55.00;102293.34;4902774;29;2117;-68
2023/09/25 06:01:43;;;;;;;;;;;;;;;20.74;55.06;102297.72;4905046;29;6205;-68
2023/09/25 06:04:09;;;;;;;;;;;;;;;20.75;54.87;102299.22;4904607;29;2058;-68
2023/09/25 06:06:36;;;;;;;;;;;;;;;20.74;54.98;102300.59;4904857;29;2569;-68
2023/09/25 06:09:04;;;;;;;;;;;;;;;20.73;54.98;102299.09;4904469;29;1862;-68
2023/09/25 06:11:31;;;;;;;;;;;;;;;20.74;55.14;102300.59;4903205;29;2168;-68
2023/09/25 06:13:57;;;;;;;;;;;;;;;20.74;54.98;102297.72;4904910;29;1672;-68
2023/09/25 06:16:24;;;;;;;;;;;;;;;20.74;54.61;102291.94;4903615;29;2121;-68
2023/09/25 06:18:50;;;;;;;;;;;;;;;20.74;54.91;102291.22;4904399;29;1926;-68
2023/09/25 06:21:17;;;;;;;;;;;;;;;20.74;54.84;102286.19;4903894;29;2136;-68
2023/09/25 06:23:43;;;;;;;;;;;;;;;20.73;54.98;102298.31;4903692;29;2215;-68
2023/09/25 06:26:10;;;;;;;;;;;;;;;20.74;55.02;102294.09;4904823;29;1703;-68
2023/09/25 06:28:37;;;;;;;;;;;;;;;20.73;54.89;102299.09;4904616;29;1729;-68
2023/09/25 06:31:04;;;;;;;;;;;;;;;20.73;54.84;102289.69;4902256;29;6331;-68
2023/09/25 06:33:30;;;;;;;;;;;;;;;20.73;55.01;102281.03;4900973;29;2092;-68
2023/09/25 06:35:57;;;;;;;;;;;;;;;20.73;55.04;102281.81;4904082;29;1795;-68
2023/09/25 06:38:24;;;;;;;;;;;;;;;20.73;54.72;102296.22;4904629;29;1919;-68
2023/09/25 06:40:51;;;;;;;;;;;;;;;20.73;54.84;102287.59;4905191;29;1687;-68
2023/09/25 06:43:17;;;;;;;;;;;;;;;20.73;55.00;102299.09;4901011;29;2128;-67
2023/09/25 06:45:44;;;;;;;;;;;;;;;20.72;54.84;102297.56;4903765;29;1850;-68
2023/09/25 06:48:10;;;;;;;;;;;;;;;20.72;55.07;102291.81;4903655;29;1747;-68
2023/09/25 06:50:37;;;;;;;;;;;;;;;20.73;54.93;102298.31;4901304;29;2236;-68
2023/09/25 06:53:03;;;;;;;;;;;;;;;20.72;55.15;102297.56;4901884;29;2235;-68
2023/09/25 06:55:30;;;;;;;;;;;;;;;20.72;54.86;102297.56;4904686;29;1661;-68
2023/09/25 06:57:56;;;;;;;;;;;;;;;20.72;54.84;102297.56;4886927;29;2010;-68
2023/09/25 07:00:24;;;;;;;;;;;;;;;20.72;55.01;102297.56;4901660;29;6407;-68
2023/09/25 07:02:51;;;;;;;;;;;;;;;20.73;55.04;102298.31;4902492;29;2109;-68
2023/09/25 07:05:17;;;;;;;;;;;;;;;20.72;54.92;102303.31;4904425;29;1686;-68
2023/09/25 07:07:44;;;;;;;;;;;;;;;20.72;55.04;102297.56;4904061;29;1624;-68
2023/09/25 07:10:10;;;;;;;;;;;;;;;20.72;55.00;102300.44;4886928;29;2260;-67
2023/09/25 07:12:37;;;;;;;;;;;;;;;20.72;55.17;102297.56;4901836;29;2147;-67
2023/09/25 07:15:05;;;;;;;;;;;;;;;20.71;54.89;102296.06;4899200;29;2155;-68
2023/09/25 07:17:31;;;;;;;;;;;;;;;20.72;54.96;102288.94;4895881;29;2694;-68
2023/09/25 07:19:57;;;;;;;;;;;;;;;20.71;55.07;102296.81;4900436;29;2406;-68
2023/09/25 07:22:25;;;;;;;;;;;;;;;20.73;54.95;102292.56;4902392;29;1702;-67
2023/09/25 07:24:52;;;;;;;;;;;;;;;20.71;55.14;102290.31;4900695;29;2236;-69
2023/09/25 07:27:18;;;;;;;;;;;;;;;20.72;55.08;102291.81;4902334;29;2206;-68
2023/09/25 07:29:45;;;;;;;;;;;;;;;20.72;55.15;102291.81;4902887;29;2131;-68
2023/09/25 07:32:11;;;;;;;;;;;;;;;20.72;55.05;102300.44;4900691;29;6334;-68
2023/09/25 07:34:38;;;;;;;;;;;;;;;20.75;54.85;102307.09;4900064;29;2237;-67
2023/09/25 07:37:05;;;;;;;;;;;;;;;20.75;54.75;102302.09;4903113;29;1919;-68
2023/09/25 07:39:33;;;;;;;;;;;;;;;20.72;55.08;102300.44;4903220;29;1691;-68
2023/09/25 07:41:59;;;;;;;;;;;;;;;20.72;54.96;102306.22;4901843;29;2285;-68
2023/09/25 07:44:26;;;;;;;;;;;;;;;20.71;55.05;102296.06;4902340;29;2401;-68
2023/09/25 07:46:57;;;;;;;;;;;;;;;20.72;54.94;102288.94;4901666;29;1711;-67
2023/09/25 07:49:24;;;;;;;;;;;;;;;20.71;54.81;102290.31;4901087;29;2080;-68
2023/09/25 07:51:51;;;;;;;;;;;;;;;20.71;54.85;102290.31;4903153;29;1866;-68
2023/09/25 07:54:17;;;;;;;;;;;;;;;20.73;54.91;102292.56;4901662;29;2119;-68
2023/09/25 07:56:46;;;;;;;;;;;;;;;20.71;55.17;102287.44;4900877;29;2301;-68
2023/09/25 07:59:13;;;;;;;;;;;;;;;20.71;55.08;102290.31;4899319;29;2156;-67
2023/09/25 08:01:42;;;;;;;;;;;;;;;20.68;55.04;102291.53;4898643;29;6715;-68
2023/09/25 08:04:08;;;;;;;;;;;;;;;20.57;55.36;102286.44;4898465;29;2243;-66
2023/09/25 08:06:35;;;;;;;;;;;;;;;20.46;55.58;102293.63;4900235;29;2573;-68
2023/09/25 08:09:03;;;;;;;;;;;;;;;20.49;55.42;102292.38;4896199;29;2201;-69
2023/09/25 08:11:29;;;;;;;;;;;;;;;20.41;55.55;102288.94;4899146;29;2239;-68
2023/09/25 08:13:55;;;;;;;;;;;;;;;20.29;55.61;102283.09;4902309;29;1898;-68
2023/09/25 08:16:23;;;;;;;;;;;;;;;20.19;55.55;102291.03;4901781;29;1759;-68
2023/09/25 08:18:50;;;;;;;;;;;;;;;20.16;55.69;102295.13;4901546;29;1970;-68
2023/09/25 08:21:17;;;;;;;;;;;;;;;20.16;55.46;102298.00;4899710;29;2582;-68
2023/09/25 08:23:43;;;;;;;;;;;;;;;20.14;55.80;102292.13;4899170;29;2196;-69
2023/09/25 08:26:10;;;;;;;;;;;;;;;20.18;55.49;102298.91;4899016;29;2124;-68
2023/09/25 08:28:36;;;;;;;;;;;;;;;20.22;55.26;102292.69;4895866;29;2237;-68
2023/09/25 08:31:02;;;;;;;;;;;;;;;20.21;55.64;102291.94;4898271;29;6341;-67
2023/09/25 08:33:29;;;;;;;;;;;;;;;20.16;55.52;102300.88;4897575;29;2155;-67
2023/09/25 08:35:55;;;;;;;;;;;;;;;20.04;55.99;102295.81;4899430;29;2251;-68
2023/09/25 08:38:22;;;;;;;;;;;;;;;20.18;55.82;102298.91;4899115;29;2192;-68
2023/09/25 08:40:49;;;;;;;;;;;;;;;20.33;55.34;102300.66;4899474;29;2219;-67
2023/09/25 08:43:15;;;;;;;;;;;;;;;20.42;55.04;102299.84;4899093;29;2136;-67
2023/09/25 08:45:46;;;;;;;;;;;;;;;20.49;54.86;102298.91;4900277;29;2417;-67
2023/09/25 08:48:12;;;;;;;;;;;;;;;20.53;54.78;102312.81;4879780;29;1817;-66
2023/09/25 08:50:39;;;;;;;;;;;;;;;20.56;54.81;102302.97;4878562;29;2311;-67
2023/09/25 08:53:06;;;;;;;;;;;;;;;20.58;54.97;102299.50;4899246;29;2231;-67
2023/09/25 08:55:32;;;;;;;;;;;;;;;20.60;54.81;102296.75;4901790;29;2329;-67
2023/09/25 08:58:00;;;;;;;;;;;;;;;20.60;55.03;102300.38;4896246;29;2132;-67
2023/09/25 09:00:27;;;;;;;;;;;;;;;20.61;55.02;102301.13;4898937;29;6097;-67
2023/09/25 09:02:54;;;;;;;;;;;;;;;20.63;55.16;102301.25;4880044;29;2217;-67
2023/09/25 09:05:20;;;;;;;;;;;;;;;20.62;54.92;102300.53;4904977;29;2674;-67
2023/09/25 09:08:03;;;;;;;;;;;;;;;20.63;55.17;102301.25;4901152;29;2204;-67
2023/09/25 09:10:32;;;;;;;;;;;;;;;20.62;55.07;102294.00;4897901;29;2196;-67
2023/09/25 09:12:59;;;;;;;;;;;;;;;20.64;54.90;102291.28;4900551;29;2225;-67
2023/09/25 09:15:29;;;;;;;;;;;;;;;20.65;55.00;102304.28;4903901;29;2387;-67
2023/09/25 09:17:55;;;;;;;;;;;;;;;20.65;55.31;102299.28;4901999;29;2258;-67
2023/09/25 09:20:33;;;;;;;;;;;;;;;20.65;55.46;102287.00;4900133;29;2288;-67
2023/09/25 09:22:59;;;;;;;;;;;;;;;20.62;55.23;102299.78;4900405;29;2214;-66
2023/09/25 09:25:27;;;;;;;;;;;;;;;20.66;55.25;102283.53;4900658;29;2195;-66
2023/09/25 09:27:54;;;;;;;;;;;;;;;20.71;54.82;102290.31;4902752;29;2204;-66
2023/09/25 09:30:22;;;;;;;;;;;;;;;20.71;54.73;102287.44;4903596;29;6139;-66
2023/09/25 09:32:50;;;;;;;;;;;;;;;20.70;55.17;102283.03;4904510;29;1886;-66
2023/09/25 09:35:23;;;;;;;;;;;;;;;20.70;55.02;102277.28;4905132;29;1695;-66
2023/09/25 09:37:49;;;;;;;;;;;;;;;20.70;54.87;102277.28;4904582;29;1986;-65
2023/09/25 09:40:17;;;;;;;;;;;;;;;20.70;55.02;102271.53;4903782;29;1719;-66
2023/09/25 09:42:44;;;;;;;;;;;;;;;20.71;54.78;102287.44;4903776;29;1771;-66
2023/09/25 09:45:10;;;;;;;;;;;;;;;20.71;54.83;102281.69;4883961;29;1776;-66
2023/09/25 09:47:39;;;;;;;;;;;;;;;20.71;54.84;102270.91;4905682;29;1707;-66
2023/09/25 09:50:07;;;;;;;;;;;;;;;20.73;54.81;102263.78;4881933;29;1728;-66
2023/09/25 09:52:34;;;;;;;;;;;;;;;20.73;54.82;102269.53;4888829;29;1640;-66
2023/09/25 09:55:00;;;;;;;;;;;;;;;20.73;55.00;102264.56;4904189;29;1798;-66
2023/09/25 09:57:27;;;;;;;;;;;;;;;20.74;54.85;102262.41;4882125;29;1627;-66
2023/09/25 09:59:54;;;;;;;;;;;;;;;20.74;55.08;102254.53;4887662;29;1976;-66
2023/09/25 10:02:20;;;;;;;;;;;;;;;20.74;54.90;102248.78;4897999;29;6301;-66
2023/09/25 10:04:47;;;;;;;;;;;;;;;20.75;55.23;102256.03;4881190;29;1701;-66
2023/09/25 10:07:13;;;;;;;;;;;;;;;20.76;55.23;102245.28;4904697;29;1592;-66
2023/09/25 10:09:58;;;;;;;;;;;;;;;20.75;55.08;102244.50;4902631;29;1613;-66
2023/09/25 10:12:48;;;;;;;;;;;;;;;20.78;54.96;102240.41;4903445;29;1657;-66
2023/09/25 10:15:19;;;;;;;;;;;;;;;20.78;55.04;102249.06;4904194;29;1725;-66
2023/09/25 10:17:48;;;;;;;;;;;;;;;20.78;55.09;102243.28;4904105;29;2108;-66
2023/09/25 10:20:33;;;;;;;;;;;;;;;20.79;54.89;102239.03;4903735;29;1924;-66
2023/09/25 10:23:03;;;;;;;;;;;;;;;20.79;55.27;102236.16;4903856;29;1839;-66
2023/09/25 10:25:32;;;;;;;;;;;;;;;20.81;54.99;102236.28;4904009;29;1670;-66
2023/09/25 10:27:59;;;;;;;;;;;;;;;20.81;55.10;102235.53;4886034;29;1903;-66
2023/09/25 10:30:25;;;;;;;;;;;;;;;20.83;55.07;102233.53;4902973;29;6472;-66
2023/09/25 10:32:52;;;;;;;;;;;;;;;20.83;55.40;102233.53;4903588;29;1860;-66
2023/09/25 10:35:40;;;;;;;;;;;;;;;20.84;55.06;102234.28;4903262;29;1714;-66
2023/09/25 10:38:08;;;;;;;;;;;;;;;20.84;55.32;102229.28;4903094;29;1919;-66
2023/09/25 10:40:55;;;;;;;;;;;;;;;20.85;55.15;102224.28;4903326;29;1816;-66
2023/09/25 10:43:22;;;;;;;;;;;;;;;20.86;55.30;102225.78;4903438;29;1606;-66
2023/09/25 10:45:48;;;;;;;;;;;;;;;20.86;55.32;102209.25;4903082;29;1629;-66
2023/09/25 10:48:15;;;;;;;;;;;;;;;20.86;55.47;102209.25;4904193;29;1622;-66
2023/09/25 10:50:43;;;;;;;;;;;;;;;20.87;55.28;102213.66;4903879;29;1753;-66
2023/09/25 10:53:13;;;;;;;;;;;;;;;20.88;55.22;102215.16;4903488;29;1580;-66
2023/09/25 10:55:39;;;;;;;;;;;;;;;20.87;55.28;102205.03;4903729;29;1676;-66
2023/09/25 10:58:06;;;;;;;;;;;;;;;20.87;55.25;102207.91;4902664;29;1992;-66
2023/09/25 11:00:33;;;;;;;;;;;;;;;20.89;55.21;102205.16;4902200;29;6068;-66
2023/09/25 11:02:59;;;;;;;;;;;;;;;20.90;55.26;102192.25;4903215;29;1657;-66
2023/09/25 11:05:26;;;;;;;;;;;;;;;20.91;55.11;102198.75;4903632;29;1594;-66
2023/09/25 11:07:53;;;;;;;;;;;;;;;20.92;55.35;102203.16;4903762;29;1875;-66
2023/09/25 11:10:19;;;;;;;;;;;;;;;20.90;55.39;102195.13;4903484;29;1613;-66
2023/09/25 11:12:47;;;;;;;;;;;;;;;20.89;55.45;102193.66;4902700;29;1880;-66
2023/09/25 11:15:16;;;;;;;;;;;;;;;20.89;55.41;102185.00;4903602;29;1614;-66
2023/09/25 11:17:43;;;;;;;;;;;;;;;20.90;55.39;102180.00;4902472;29;1800;-66
2023/09/25 11:20:18;;;;;;;;;;;;;;;20.91;55.47;102179.38;4903070;29;1903;-66
2023/09/25 11:22:48;;;;;;;;;;;;;;;20.92;55.31;102183.00;4903114;29;1671;-66
2023/09/25 11:25:17;;;;;;;;;;;;;;;20.90;55.48;102169.22;4903797;29;1697;-66
2023/09/25 11:27:56;;;;;;;;;;;;;;;20.90;55.35;102169.22;4901277;29;1827;-66
2023/09/25 11:30:26;;;;;;;;;;;;;;;20.91;55.34;102167.88;4901304;29;7698;-66
2023/09/25 11:32:53;;;;;;;;;;;;;;;20.93;55.65;102167.22;4903125;29;1589;-66
2023/09/25 11:35:19;;;;;;;;;;;;;;;20.93;55.71;102165.09;4902856;29;1662;-66
2023/09/25 11:37:55;;;;;;;;;;;;;;;20.95;55.46;102170.25;4901706;29;2448;-67
2023/09/25 11:40:22;;;;;;;;;;;;;;;20.97;55.42;102153.09;4897990;29;2566;-66
2023/09/25 11:42:48;;;;;;;;;;;;;;;20.99;55.43;102161.88;4898323;29;2398;-66
2023/09/25 11:45:15;;;;;;;;;;;;;;;21.03;55.36;102155.63;4900157;29;2184;-67
2023/09/25 11:47:42;;;;;;;;;;;;;;;21.04;55.16;102157.13;4896029;29;2117;-64
2023/09/25 11:50:10;;;;;;;;;;;;;;;21.03;55.38;102156.38;4900155;29;2191;-63
2023/09/25 11:52:37;;;;;;;;;;;;;;;21.02;55.34;102142.59;4897964;29;2088;-63
2023/09/25 11:55:04;;;;;;;;;;;;;;;21.06;55.24;102140.72;4897695;29;2180;-63
2023/09/25 11:57:30;;;;;;;;;;;;;;;21.06;55.21;102145.72;4896534;29;2266;-63
2023/09/25 11:59:57;;;;;;;;;;;;;;;21.03;55.34;102144.84;4900366;29;2572;-63
2023/09/25 12:02:25;;;;;;;;;;;;;;;21.04;55.35;102140.59;4902391;29;6792;-63
2023/09/25 12:04:54;;;;;;;;;;;;;;;21.07;55.22;102141.47;4901823;29;1562;-63
2023/09/25 12:07:21;;;;;;;;;;;;;;;21.10;55.40;102137.34;4902443;29;2512;-63
2023/09/25 12:09:48;;;;;;;;;;;;;;;21.13;55.20;102133.22;4884488;29;1885;-63
2023/09/25 12:12:16;;;;;;;;;;;;;;;21.14;55.31;102140.47;4902787;29;1684;-63
2023/09/25 12:14:43;;;;;;;;;;;;;;;21.16;55.25;102137.72;4901648;29;1779;-63
2023/09/25 12:17:10;;;;;;;;;;;;;;;21.16;55.35;102131.97;4901694;29;2071;-63
2023/09/25 12:19:36;;;;;;;;;;;;;;;21.16;55.18;102128.34;4903147;29;1919;-63
2023/09/25 12:22:03;;;;;;;;;;;;;;;21.18;55.07;102123.44;4901539;29;1815;-63
2023/09/25 12:24:29;;;;;;;;;;;;;;;21.21;55.05;102121.44;4902947;29;1733;-63
2023/09/25 12:26:56;;;;;;;;;;;;;;;21.21;55.10;102125.09;4902636;29;1804;-63
2023/09/25 12:29:25;;;;;;;;;;;;;;;21.23;55.00;102118.69;4902105;29;1800;-63
2023/09/25 12:31:52;;;;;;;;;;;;;;;21.23;55.27;102128.09;4900918;29;6109;-63
2023/09/25 12:34:19;;;;;;;;;;;;;;;21.25;54.96;102113.81;4902685;29;1800;-63
2023/09/25 12:36:45;;;;;;;;;;;;;;;21.26;55.11;102115.34;4903105;29;1824;-63
2023/09/25 12:39:14;;;;;;;;;;;;;;;21.28;55.09;102112.59;4901317;29;1981;-63
2023/09/25 12:41:41;;;;;;;;;;;;;;;21.29;54.90;102110.44;4902374;29;1863;-63
2023/09/25 12:44:08;;;;;;;;;;;;;;;21.29;54.89;102105.44;4902296;29;1713;-63
2023/09/25 12:46:35;;;;;;;;;;;;;;;21.29;55.14;102105.44;4901883;29;1716;-63
2023/09/25 12:49:01;;;;;;;;;;;;;;;21.31;54.85;102108.44;4903480;29;1558;-63